createdAt,value
2023-04-04T00:00:24.852Z,1.5802
2023-04-04T00:01:25.817Z,1.6002
2023-04-04T00:02:26.749Z,1.6193
2023-04-04T00:03:27.884Z,1.5853
2023-04-04T00:04:29.072Z,1.6513
2023-04-04T00:05:29.985Z,1.6745
2023-04-04T00:06:30.879Z,1.6690
2023-04-04T00:07:31.776Z,1.6498
2023-04-04T00:08:32.660Z,1.6852
2023-04-04T00:09:33.633Z,1.6604
2023-04-04T00:10:34.538Z,1.6178
2023-04-04T00:11:35.617Z,1.5849
2023-04-04T00:12:36.625Z,1.5138
2023-04-04T00:13:37.496Z,1.5290
2023-04-04T00:14:38.472Z,1.5331
2023-04-04T00:15:39.410Z,1.5210
2023-04-04T00:16:40.390Z,1.5242
2023-04-04T00:17:41.290Z,1.4943
2023-04-04T00:18:42.280Z,1.5059
2023-04-04T00:19:43.218Z,1.4867
2023-04-04T00:20:44.229Z,1.5125
2023-04-04T00:21:45.205Z,1.5360
2023-04-04T00:22:46.096Z,1.5462
2023-04-04T00:23:47.051Z,1.5361
2023-04-04T00:24:48.020Z,1.6221
2023-04-04T00:25:48.921Z,1.6100
2023-04-04T00:26:49.810Z,1.5854
2023-04-04T00:27:50.743Z,1.6165
2023-04-04T00:28:51.641Z,1.5464
2023-04-04T00:29:52.721Z,1.5729
2023-04-04T00:30:53.605Z,1.3948
2023-04-04T00:31:54.623Z,1.3984
2023-04-04T00:32:55.579Z,1.3801
2023-04-04T00:33:56.605Z,1.3805
2023-04-04T00:34:57.544Z,1.3458
2023-04-04T00:35:58.444Z,1.2804
2023-04-04T00:36:59.383Z,1.2467
2023-04-04T00:38:00.268Z,1.2766
2023-04-04T00:39:01.213Z,1.3400
2023-04-04T00:40:02.161Z,1.2786
2023-04-04T00:41:03.099Z,1.2009
2023-04-04T00:42:04.151Z,1.3105
2023-04-04T00:43:05.056Z,1.1998
2023-04-04T00:44:05.937Z,1.1686
2023-04-04T00:45:06.857Z,1.1946
2023-04-04T00:46:07.969Z,1.2431
2023-04-04T00:47:08.908Z,1.2828
2023-04-04T00:48:09.863Z,1.1461
2023-04-04T00:49:10.721Z,1.1178
2023-04-04T00:50:12.798Z,1.0958
2023-04-04T00:51:13.732Z,1.2438
2023-04-04T00:52:14.638Z,1.2018
2023-04-04T00:53:15.535Z,1.1558
2023-04-04T00:54:16.585Z,1.1284
2023-04-04T00:55:17.504Z,1.0651
2023-04-04T00:56:18.431Z,1.1004
2023-04-04T00:57:19.302Z,1.2264
2023-04-04T00:58:20.161Z,1.2096
2023-04-04T00:59:21.154Z,1.1484
2023-04-04T01:00:22.182Z,1.1269
2023-04-04T01:01:23.192Z,1.1037
2023-04-04T01:02:24.148Z,1.1282
2023-04-04T01:03:25.074Z,1.0830
2023-04-04T01:04:25.994Z,1.0372
2023-04-04T01:05:26.945Z,1.1225
2023-04-04T01:06:27.887Z,1.1380
2023-04-04T01:07:28.774Z,1.1021
2023-04-04T01:08:29.676Z,1.0736
2023-04-04T01:09:30.579Z,0.9292
2023-04-04T01:10:31.492Z,0.9244
2023-04-04T01:11:33.746Z,0.9701
2023-04-04T01:12:34.613Z,1.0051
2023-04-04T01:13:35.544Z,0.9811
2023-04-04T01:14:36.459Z,0.8662
2023-04-04T01:15:37.451Z,0.9432
2023-04-04T01:16:38.535Z,0.9258
2023-04-04T01:17:39.648Z,0.8630
2023-04-04T01:18:40.598Z,0.7615
2023-04-04T01:19:41.611Z,0.8404
2023-04-04T01:20:42.557Z,0.8474
2023-04-04T01:21:43.463Z,0.8293
2023-04-04T01:22:44.427Z,0.7890
2023-04-04T01:23:45.330Z,0.9369
2023-04-04T01:24:46.200Z,0.9006
2023-04-04T01:25:47.195Z,0.7909
2023-04-04T01:26:48.062Z,0.7390
2023-04-04T01:27:49.001Z,0.8112
2023-04-04T01:28:49.944Z,0.6566
2023-04-04T01:29:50.833Z,0.7065
2023-04-04T01:30:51.774Z,0.6742
2023-04-04T01:31:52.884Z,0.6470
2023-04-04T01:32:53.811Z,0.6052
2023-04-04T01:33:54.744Z,0.7352
2023-04-04T01:34:55.645Z,0.6348
2023-04-04T01:35:56.653Z,0.7310
2023-04-04T01:36:57.591Z,0.7560
2023-04-04T01:37:58.496Z,0.7409
2023-04-04T01:38:59.415Z,0.8041
2023-04-04T01:40:00.353Z,0.7506
2023-04-04T01:41:01.293Z,0.8078
2023-04-04T01:42:02.226Z,0.7831
2023-04-04T01:43:03.123Z,0.7478
2023-04-04T01:44:04.049Z,0.7172
2023-04-04T01:45:04.933Z,0.7126
2023-04-04T01:46:05.993Z,0.7255
2023-04-04T01:47:06.964Z,0.6804
2023-04-04T01:48:07.895Z,0.6361
2023-04-04T01:49:09.681Z,0.6241
2023-04-04T01:50:09.870Z,0.5742
2023-04-04T01:51:10.854Z,0.5458
2023-04-04T01:52:11.754Z,0.6079
2023-04-04T01:53:12.641Z,0.6031
2023-04-04T01:54:13.631Z,0.6098
2023-04-04T01:55:14.519Z,0.5612
2023-04-04T01:56:15.539Z,0.5268
2023-04-04T01:57:17.577Z,0.5843
2023-04-04T01:58:18.476Z,0.5215
2023-04-04T01:59:19.476Z,0.5500
2023-04-04T02:00:20.580Z,0.5916
2023-04-04T02:01:21.553Z,0.5283
2023-04-04T02:02:22.832Z,0.4485
2023-04-04T02:03:23.754Z,0.5344
2023-04-04T02:04:24.687Z,0.5274
2023-04-04T02:05:25.722Z,0.4514
2023-04-04T02:06:26.666Z,0.3827
2023-04-04T02:07:27.623Z,0.4059
2023-04-04T02:08:28.549Z,0.3617
2023-04-04T02:09:29.512Z,0.3730
2023-04-04T02:10:30.429Z,0.4615
2023-04-04T02:11:31.421Z,0.3526
2023-04-04T02:12:32.339Z,0.3046
2023-04-04T02:13:33.249Z,0.2818
2023-04-04T02:14:34.256Z,0.4113
2023-04-04T02:15:36.228Z,0.4189
2023-04-04T02:16:37.162Z,0.3942
2023-04-04T02:17:38.114Z,0.3466
2023-04-04T02:18:39.070Z,0.3139
2023-04-04T02:19:39.957Z,0.2461
2023-04-04T02:20:41.110Z,0.2455
2023-04-04T02:21:42.806Z,0.1988
2023-04-04T02:22:43.735Z,0.2557
2023-04-04T02:23:44.650Z,0.3011
2023-04-04T02:24:45.548Z,0.3484
2023-04-04T02:25:46.487Z,0.3457
2023-04-04T02:26:47.512Z,0.2647
2023-04-04T02:27:48.418Z,0.2584
2023-04-04T02:28:49.331Z,0.2540
2023-04-04T02:29:50.408Z,0.1531
2023-04-04T02:30:51.320Z,0.2053
2023-04-04T02:31:52.274Z,0.1148
2023-04-04T02:32:53.274Z,0.1612
2023-04-04T02:33:54.413Z,0.2017
2023-04-04T02:34:55.279Z,0.1559
2023-04-04T02:35:56.256Z,0.2290
2023-04-04T02:36:57.159Z,0.2013
2023-04-04T02:37:58.053Z,0.1412
2023-04-04T02:38:58.961Z,0.1723
2023-04-04T02:39:59.882Z,0.0963
2023-04-04T02:41:00.848Z,0.0935
2023-04-04T02:42:01.755Z,0.0412
2023-04-04T02:43:02.693Z,0.0183
2023-04-04T02:44:03.654Z,0.0714
2023-04-04T02:45:04.567Z,0.2316
2023-04-04T02:46:20.594Z,0.1917
2023-04-04T02:47:08.283Z,0.1932
2023-04-04T02:48:09.268Z,0.1863
2023-04-04T02:49:10.554Z,0.1431
2023-04-04T02:50:11.451Z,0.0255
2023-04-04T02:51:12.399Z,0.1521
2023-04-04T02:52:13.346Z,0.0472
2023-04-04T02:53:14.296Z,0.0682
2023-04-04T02:54:15.230Z,0.0392
2023-04-04T02:55:16.184Z,-0.0370
2023-04-04T02:56:17.093Z,0.0300
2023-04-04T02:57:18.083Z,-0.0163
2023-04-04T02:58:19.099Z,-0.0447
2023-04-04T02:59:20.016Z,0.0145
2023-04-04T03:00:20.934Z,-0.0667
2023-04-04T03:01:21.913Z,-0.1335
2023-04-04T03:02:22.992Z,-0.0292
2023-04-04T03:03:24.181Z,-0.0710
2023-04-04T03:04:25.608Z,-0.1663
2023-04-04T03:05:26.537Z,-0.1315
2023-04-04T03:06:27.739Z,-0.1710
2023-04-04T03:07:29.697Z,-0.1092
2023-04-04T03:08:30.656Z,-0.0916
2023-04-04T03:09:31.555Z,-0.1205
2023-04-04T03:10:32.485Z,-0.1512
2023-04-04T03:11:33.432Z,-0.1184
2023-04-04T03:12:34.384Z,-0.1459
2023-04-04T03:13:35.330Z,0.0364
2023-04-04T03:14:36.247Z,0.0866
2023-04-04T03:15:37.158Z,-0.0418
2023-04-04T03:16:38.169Z,-0.0692
2023-04-04T03:17:40.095Z,-0.1809
2023-04-04T03:18:40.361Z,-0.2274
2023-04-04T03:19:41.317Z,-0.2013
2023-04-04T03:20:42.483Z,-0.2597
2023-04-04T03:21:43.664Z,-0.2359
2023-04-04T03:22:44.622Z,-0.2509
2023-04-04T03:23:46.552Z,-0.2495
2023-04-04T03:24:47.456Z,-0.2318
2023-04-04T03:25:48.460Z,-0.1712
2023-04-04T03:26:49.467Z,-0.2174
2023-04-04T03:27:50.519Z,-0.1770
2023-04-04T03:28:51.434Z,-0.2094
2023-04-04T03:29:52.410Z,-0.2111
2023-04-04T03:30:53.309Z,-0.2324
2023-04-04T03:31:54.278Z,-0.0434
2023-04-04T03:32:55.382Z,-0.1700
2023-04-04T03:33:56.590Z,-0.1835
2023-04-04T03:34:57.522Z,-0.1593
2023-04-04T03:35:58.466Z,-0.2611
2023-04-04T03:36:59.635Z,-0.2694
2023-04-04T03:38:00.571Z,-0.3760
2023-04-04T03:39:01.509Z,-0.3530
2023-04-04T03:40:02.503Z,-0.3269
2023-04-04T03:41:03.379Z,-0.3750
2023-04-04T03:42:04.317Z,-0.3024
2023-04-04T03:43:05.281Z,-0.2800
2023-04-04T03:44:06.379Z,-0.4027
2023-04-04T03:45:07.327Z,-0.3950
2023-04-04T03:46:08.307Z,-0.3377
2023-04-04T03:47:10.415Z,-0.2820
2023-04-04T03:48:12.433Z,-0.2334
2023-04-04T03:49:13.429Z,-0.0704
2023-04-04T03:50:14.436Z,-0.1060
2023-04-04T03:51:15.434Z,-0.1903
2023-04-04T03:52:16.369Z,-0.2542
2023-04-04T03:53:17.357Z,-0.2275
2023-04-04T03:54:18.288Z,-0.3046
2023-04-04T03:55:19.266Z,-0.1389
2023-04-04T03:56:20.228Z,-0.1916
2023-04-04T03:57:21.131Z,-0.2256
2023-04-04T03:58:22.083Z,-0.3067
2023-04-04T03:59:23.139Z,-0.3030
2023-04-04T04:00:24.229Z,-0.2384
2023-04-04T04:01:25.197Z,-0.3274
2023-04-04T04:02:26.196Z,-0.2669
2023-04-04T04:03:27.294Z,-0.2399
2023-04-04T04:04:28.565Z,-0.2730
2023-04-04T04:05:29.433Z,-0.3043
2023-04-04T04:06:30.365Z,-0.3025
2023-04-04T04:07:31.324Z,-0.2820
2023-04-04T04:08:32.515Z,-0.2159
2023-04-04T04:09:33.453Z,-0.2580
2023-04-04T04:10:34.405Z,-0.3671
2023-04-04T04:11:35.319Z,-0.2644
2023-04-04T04:12:36.269Z,-0.3539
2023-04-04T04:13:37.250Z,-0.3584
2023-04-04T04:14:38.171Z,-0.3477
2023-04-04T04:15:39.102Z,-0.2628
2023-04-04T04:16:40.068Z,-0.3903
2023-04-04T04:17:41.221Z,-0.5282
2023-04-04T04:18:42.616Z,-0.4891
2023-04-04T04:19:44.571Z,-0.3903
2023-04-04T04:20:45.480Z,-0.3212
2023-04-04T04:21:46.407Z,-0.3194
2023-04-04T04:22:47.336Z,-0.3482
2023-04-04T04:23:48.264Z,-0.3450
2023-04-04T04:24:49.197Z,-0.3296
2023-04-04T04:25:50.108Z,-0.3435
2023-04-04T04:26:51.063Z,-0.3567
2023-04-04T04:27:52.075Z,-0.3733
2023-04-04T04:28:52.981Z,-0.3480
2023-04-04T04:29:53.917Z,-0.4037
2023-04-04T04:30:54.895Z,-0.3536
2023-04-04T04:31:55.991Z,-0.5166
2023-04-04T04:32:57.285Z,-0.5576
2023-04-04T04:33:58.228Z,-0.4980
2023-04-04T04:34:59.135Z,-0.5518
2023-04-04T04:36:01.630Z,-0.6055
2023-04-04T04:37:00.759Z,-0.5352
2023-04-04T04:38:01.673Z,-0.5902
2023-04-04T04:39:02.721Z,-0.6288
2023-04-04T04:40:03.687Z,-0.5807
2023-04-04T04:41:04.648Z,-0.3690
2023-04-04T04:42:05.542Z,-0.4540
2023-04-04T04:43:06.562Z,-0.4299
2023-04-04T04:44:07.502Z,-0.5459
2023-04-04T04:45:08.431Z,-0.6038
2023-04-04T04:46:09.377Z,-0.4881
2023-04-04T04:47:10.376Z,-0.5376
2023-04-04T04:48:11.456Z,-0.5523
2023-04-04T04:49:12.536Z,-0.6906
2023-04-04T04:50:13.477Z,-0.7329
2023-04-04T04:51:14.469Z,-0.6546
2023-04-04T04:52:15.438Z,-0.6270
2023-04-04T04:53:16.406Z,-0.7716
2023-04-04T04:54:17.374Z,-0.8198
2023-04-04T04:55:18.383Z,-0.7950
2023-04-04T04:56:19.358Z,-0.8219
2023-04-04T04:57:20.382Z,-0.8998
2023-04-04T04:58:21.349Z,-0.9118
2023-04-04T04:59:22.492Z,-0.7641
2023-04-04T05:00:23.440Z,-0.8989
2023-04-04T05:01:24.493Z,-0.9267
2023-04-04T05:02:25.722Z,-0.9344
2023-04-04T05:03:27.000Z,-1.0409
2023-04-04T05:04:28.007Z,-0.8917
2023-04-04T05:05:29.036Z,-0.8434
2023-04-04T05:06:29.975Z,-0.8565
2023-04-04T05:07:30.888Z,-0.8945
2023-04-04T05:08:31.796Z,-0.7879
2023-04-04T05:09:32.822Z,-0.8200
2023-04-04T05:10:33.869Z,-0.8881
2023-04-04T05:11:34.846Z,-0.8182
2023-04-04T05:12:35.879Z,-0.8788
2023-04-04T05:13:36.875Z,-0.8789
2023-04-04T05:14:37.892Z,-0.7420
2023-04-04T05:15:38.844Z,-0.7459
2023-04-04T05:16:39.864Z,-0.7386
2023-04-04T05:17:40.868Z,-0.7665
2023-04-04T05:18:41.843Z,-0.7448
2023-04-04T05:19:42.830Z,-0.6724
2023-04-04T05:20:43.877Z,-0.7395
2023-04-04T05:21:44.876Z,-0.8391
2023-04-04T05:22:45.870Z,-0.8182
2023-04-04T05:23:46.764Z,-0.7804
2023-04-04T05:24:47.776Z,-0.7559
2023-04-04T05:25:48.693Z,-0.7904
2023-04-04T05:26:49.671Z,-0.8509
2023-04-04T05:27:50.672Z,-0.7695
2023-04-04T05:28:51.567Z,-0.7776
2023-04-04T05:29:52.533Z,-0.7636
2023-04-04T05:30:53.480Z,-0.7788
2023-04-04T05:31:54.426Z,-0.8526
2023-04-04T05:32:55.408Z,-0.7684
2023-04-04T05:33:56.440Z,-0.6584
2023-04-04T05:34:57.363Z,-0.6669
2023-04-04T05:35:58.359Z,-0.6975
2023-04-04T05:36:59.446Z,-0.7301
2023-04-04T05:38:00.369Z,-0.7732
2023-04-04T05:39:01.326Z,-0.7315
2023-04-04T05:40:02.335Z,-0.7336
2023-04-04T05:41:03.264Z,-0.7018
2023-04-04T05:42:04.204Z,-0.5897
2023-04-04T05:43:05.169Z,-0.4890
2023-04-04T05:44:06.150Z,-0.5271
2023-04-04T05:45:07.092Z,-0.5635
2023-04-04T05:46:08.084Z,-0.5825
2023-04-04T05:47:09.017Z,-0.6189
2023-04-04T05:48:09.968Z,-0.6594
2023-04-04T05:49:10.921Z,-0.6453
2023-04-04T05:50:11.887Z,-0.6172
2023-04-04T05:51:12.816Z,-0.5342
2023-04-04T05:52:13.790Z,-0.3411
2023-04-04T05:53:14.712Z,-0.3296
2023-04-04T05:54:15.684Z,-0.2871
2023-04-04T05:55:16.605Z,-0.3000
2023-04-04T05:56:17.739Z,-0.2748
2023-04-04T05:57:18.708Z,-0.4177
2023-04-04T05:58:19.668Z,-0.4795
2023-04-04T05:59:20.675Z,-0.3413
2023-04-04T06:00:21.664Z,-0.2799
2023-04-04T06:01:22.590Z,-0.1405
2023-04-04T06:02:23.649Z,-0.1853
2023-04-04T06:03:24.756Z,-0.0892
2023-04-04T06:04:25.858Z,-0.1445
2023-04-04T06:05:26.908Z,-0.0239
2023-04-04T06:06:28.231Z,-0.1227
2023-04-04T06:07:29.207Z,-0.0361
2023-04-04T06:08:31.964Z,-0.0832
2023-04-04T06:09:31.674Z,0.0554
2023-04-04T06:10:32.567Z,0.0536
2023-04-04T06:11:33.540Z,0.0644
2023-04-04T06:12:34.410Z,0.0471
2023-04-04T06:13:36.354Z,0.0920
2023-04-04T06:14:37.276Z,0.0041
2023-04-04T06:15:38.225Z,0.1295
2023-04-04T06:16:39.132Z,0.0532
2023-04-04T06:17:40.159Z,0.1726
2023-04-04T06:18:41.068Z,0.2310
2023-04-04T06:19:41.955Z,0.2777
2023-04-04T06:20:42.865Z,0.2564
2023-04-04T06:21:43.805Z,0.2266
2023-04-04T06:22:44.764Z,0.2439
2023-04-04T06:23:45.712Z,0.3661
2023-04-04T06:24:46.591Z,0.3298
2023-04-04T06:25:47.583Z,0.3563
2023-04-04T06:26:48.447Z,0.4436
2023-04-04T06:27:49.354Z,0.3017
2023-04-04T06:28:50.290Z,0.3682
2023-04-04T06:29:51.165Z,0.4730
2023-04-04T06:30:52.247Z,0.4821
2023-04-04T06:31:53.260Z,0.4855
2023-04-04T06:32:54.300Z,0.5670
2023-04-04T06:33:55.238Z,0.5377
2023-04-04T06:34:56.208Z,0.5163
2023-04-04T06:35:57.128Z,0.4228
2023-04-04T06:36:58.031Z,0.4356
2023-04-04T06:37:58.948Z,0.4233
2023-04-04T06:38:59.836Z,0.4514
2023-04-04T06:40:00.745Z,0.4119
2023-04-04T06:41:01.686Z,0.5244
2023-04-04T06:42:02.626Z,0.5693
2023-04-04T06:43:03.481Z,0.4903
2023-04-04T06:44:04.386Z,0.4748
2023-04-04T06:45:05.273Z,0.3682
2023-04-04T06:46:06.262Z,0.3908
2023-04-04T06:47:07.157Z,0.4646
2023-04-04T06:48:08.088Z,0.4691
2023-04-04T06:49:09.026Z,0.4459
2023-04-04T06:50:09.936Z,0.4639
2023-04-04T06:51:10.863Z,0.5100
2023-04-04T06:52:11.784Z,0.4942
2023-04-04T06:53:12.738Z,0.6004
2023-04-04T06:54:13.556Z,0.6013
2023-04-04T06:55:14.470Z,0.6150
2023-04-04T06:56:15.386Z,0.6296
2023-04-04T06:57:16.252Z,0.5964
2023-04-04T06:58:17.117Z,0.5917
2023-04-04T06:59:17.992Z,0.5042
2023-04-04T07:00:18.958Z,0.6280
2023-04-04T07:01:19.848Z,0.6670
2023-04-04T07:02:20.869Z,0.7092
2023-04-04T07:03:21.804Z,0.6915
2023-04-04T07:04:22.672Z,0.8238
2023-04-04T07:05:23.525Z,0.8112
2023-04-04T07:06:25.784Z,0.7760
2023-04-04T07:07:24.755Z,0.7869
2023-04-04T07:08:25.656Z,0.7198
2023-04-04T07:09:29.333Z,0.7889
2023-04-04T07:10:26.241Z,0.8762
2023-04-04T07:11:27.249Z,1.0518
2023-04-04T07:12:28.165Z,1.1039
2023-04-04T07:13:29.038Z,1.0011
2023-04-04T07:14:29.922Z,0.9783
2023-04-04T07:15:30.789Z,0.9928
2023-04-04T07:16:31.750Z,0.9584
2023-04-04T07:17:32.724Z,0.9522
2023-04-04T07:18:33.625Z,0.9555
2023-04-04T07:19:34.485Z,1.0267
2023-04-04T07:20:35.320Z,0.9638
2023-04-04T07:21:36.217Z,1.0131
2023-04-04T07:22:37.071Z,0.9325
2023-04-04T07:23:38.013Z,0.8638
2023-04-04T07:24:38.829Z,0.8395
2023-04-04T07:25:39.685Z,0.8465
2023-04-04T07:26:40.627Z,0.9364
2023-04-04T07:27:41.485Z,0.8314
2023-04-04T07:28:42.366Z,0.8836
2023-04-04T07:29:43.246Z,0.7509
2023-04-04T07:30:44.103Z,0.9169
2023-04-04T07:31:45.002Z,1.0461
2023-04-04T07:32:45.915Z,1.1660
2023-04-04T07:33:46.808Z,0.8658
2023-04-04T07:34:47.676Z,0.9981
2023-04-04T07:35:48.529Z,0.9360
2023-04-04T07:36:49.600Z,0.9079
2023-04-04T07:37:50.499Z,0.9732
2023-04-04T07:38:51.345Z,0.9211
2023-04-04T07:39:52.211Z,0.9194
2023-04-04T07:40:53.069Z,1.0400
2023-04-04T07:41:53.953Z,0.8974
2023-04-04T07:42:54.856Z,0.9843
2023-04-04T07:43:55.694Z,0.9668
2023-04-04T07:44:56.601Z,1.0673
2023-04-04T07:45:57.514Z,0.9767
2023-04-04T07:47:08.783Z,0.9958
2023-04-04T07:47:59.974Z,0.9687
2023-04-04T07:49:00.901Z,1.1523
2023-04-04T07:50:01.760Z,1.0933
2023-04-04T07:51:02.660Z,1.1872
2023-04-04T07:52:03.524Z,1.2061
2023-04-04T07:53:04.373Z,1.2043
2023-04-04T07:54:05.223Z,1.2733
2023-04-04T07:55:06.060Z,1.3844
2023-04-04T07:56:06.951Z,1.5066
2023-04-04T07:57:07.822Z,1.3418
2023-04-04T07:58:08.681Z,1.4643
2023-04-04T07:59:09.605Z,1.4816
2023-04-04T08:00:10.517Z,1.5571
2023-04-04T08:01:11.348Z,1.4277
2023-04-04T08:02:12.306Z,1.5504
2023-04-04T08:03:13.300Z,1.5839
2023-04-04T08:04:14.403Z,1.5504
2023-04-04T08:05:15.237Z,1.5691
2023-04-04T08:06:16.121Z,1.5694
2023-04-04T08:07:17.005Z,1.6600
2023-04-04T08:08:17.848Z,1.7310
2023-04-04T08:09:18.694Z,1.6910
2023-04-04T08:10:19.611Z,1.9616
2023-04-04T08:11:20.481Z,1.9965
2023-04-04T08:12:21.419Z,2.1543
2023-04-04T08:13:22.288Z,2.3034
2023-04-04T08:14:23.139Z,2.2442
2023-04-04T08:15:23.980Z,2.3071
2023-04-04T08:16:24.899Z,2.5258
2023-04-04T08:17:25.813Z,2.7847
2023-04-04T08:18:26.670Z,2.3035
2023-04-04T08:19:27.543Z,2.5034
2023-04-04T08:20:28.379Z,2.6985
2023-04-04T08:21:29.191Z,2.6131
2023-04-04T08:22:30.045Z,2.4163
2023-04-04T08:23:30.887Z,2.4486
2023-04-04T08:24:31.741Z,2.1019
2023-04-04T08:25:32.569Z,2.3001
2023-04-04T08:26:33.447Z,2.0354
2023-04-04T08:27:34.309Z,2.4346
2023-04-04T08:28:35.214Z,2.3213
2023-04-04T08:29:36.029Z,2.0882
2023-04-04T08:30:36.907Z,2.0162
2023-04-04T08:31:37.946Z,1.9405
2023-04-04T08:32:38.795Z,2.0601
2023-04-04T08:33:47.471Z,2.0269
2023-04-04T08:34:41.862Z,2.1089
2023-04-04T08:35:42.753Z,2.4220
2023-04-04T08:36:43.594Z,2.3142
2023-04-04T08:37:44.579Z,2.3914
2023-04-04T08:38:45.454Z,2.3533
2023-04-04T08:39:47.309Z,2.4779
2023-04-04T08:40:48.142Z,2.8951
2023-04-04T08:41:48.967Z,2.7386
2023-04-04T08:42:49.849Z,2.7346
2023-04-04T08:43:50.714Z,2.7607
2023-04-04T08:44:51.529Z,3.0162
2023-04-04T08:45:52.343Z,2.9294
2023-04-04T08:46:53.213Z,3.1136
2023-04-04T08:47:54.111Z,3.2839
2023-04-04T08:48:54.916Z,3.2160
2023-04-04T08:49:55.709Z,3.3534
2023-04-04T08:50:56.511Z,3.2556
2023-04-04T08:51:57.394Z,3.0735
2023-04-04T08:52:58.222Z,3.0913
2023-04-04T08:53:59.055Z,3.2753
2023-04-04T08:54:59.834Z,3.3097
2023-04-04T08:56:00.705Z,3.1182
2023-04-04T08:57:01.550Z,3.0459
2023-04-04T08:58:02.419Z,3.2474
2023-04-04T08:59:03.337Z,3.3053
2023-04-04T09:00:04.294Z,3.3150
2023-04-04T09:01:05.354Z,3.1651
2023-04-04T09:02:06.231Z,3.4343
2023-04-04T09:03:07.094Z,3.2374
2023-04-04T09:04:08.930Z,3.3405
2023-04-04T09:05:09.734Z,3.3821
2023-04-04T09:06:10.645Z,3.2522
2023-04-04T09:07:11.458Z,3.2959
2023-04-04T09:08:13.351Z,3.1603
2023-04-04T09:09:14.246Z,3.3041
2023-04-04T09:10:15.105Z,3.2177
2023-04-04T09:11:15.937Z,3.3077
2023-04-04T09:12:16.809Z,3.3705
2023-04-04T09:13:17.691Z,3.3560
2023-04-04T09:14:18.527Z,3.4164
2023-04-04T09:15:19.565Z,3.5230
2023-04-04T09:16:20.428Z,3.4024
2023-04-04T09:17:21.323Z,3.3299
2023-04-04T09:18:22.239Z,3.2184
2023-04-04T09:19:25.117Z,3.2390
2023-04-04T09:20:25.076Z,3.3855
2023-04-04T09:21:25.914Z,3.4257
2023-04-04T09:22:26.767Z,3.2905
2023-04-04T09:23:27.634Z,3.3996
2023-04-04T09:24:30.168Z,3.4278
2023-04-04T09:25:29.783Z,3.4259
2023-04-04T09:26:30.642Z,3.4459
2023-04-04T09:27:31.509Z,3.4057
2023-04-04T09:28:32.407Z,3.4025
2023-04-04T09:29:33.209Z,3.4621
2023-04-04T09:30:34.062Z,3.4183
2023-04-04T09:31:34.958Z,3.2548
2023-04-04T09:32:35.844Z,3.4814
2023-04-04T09:33:36.740Z,3.4107
2023-04-04T09:34:37.596Z,3.4458
2023-04-04T09:35:38.526Z,3.6413
2023-04-04T09:36:39.316Z,3.6032
2023-04-04T09:37:40.201Z,3.7391
2023-04-04T09:38:41.245Z,3.6980
2023-04-04T09:39:42.305Z,3.6270
2023-04-04T09:40:43.655Z,3.6278
2023-04-04T09:41:44.708Z,3.6914
2023-04-04T09:42:45.747Z,3.7374
2023-04-04T09:43:46.640Z,3.7731
2023-04-04T09:44:47.456Z,3.8213
2023-04-04T09:45:48.473Z,3.8323
2023-04-04T09:46:50.293Z,3.8620
2023-04-04T09:47:51.135Z,3.9067
2023-04-04T09:48:52.040Z,3.5489
2023-04-04T09:49:52.918Z,3.6838
2023-04-04T09:50:53.776Z,3.7405
2023-04-04T09:51:54.607Z,3.8859
2023-04-04T09:52:55.473Z,4.0386
2023-04-04T09:53:56.348Z,3.8901
2023-04-04T09:54:57.177Z,4.1478
2023-04-04T09:55:58.072Z,4.3039
2023-04-04T09:56:58.924Z,4.2517
2023-04-04T09:57:59.774Z,4.2531
2023-04-04T09:59:03.699Z,4.1436
2023-04-04T10:00:01.877Z,4.2309
2023-04-04T10:01:03.800Z,4.1094
2023-04-04T10:02:04.763Z,4.1115
2023-04-04T10:03:05.645Z,4.2329
2023-04-04T10:04:06.652Z,4.1976
2023-04-04T10:05:07.563Z,4.0472
2023-04-04T10:06:08.424Z,4.3304
2023-04-04T10:07:09.304Z,4.3340
2023-04-04T10:08:10.168Z,4.4218
2023-04-04T10:09:11.086Z,4.3289
2023-04-04T10:10:11.988Z,4.3615
2023-04-04T10:11:12.914Z,4.3770
2023-04-04T10:12:13.759Z,4.2092
2023-04-04T10:13:14.649Z,4.2800
2023-04-04T10:14:15.529Z,4.1133
2023-04-04T10:15:16.398Z,4.1666
2023-04-04T10:16:17.256Z,4.2856
2023-04-04T10:17:18.146Z,4.2946
2023-04-04T10:18:19.039Z,4.2234
2023-04-04T10:19:19.889Z,4.2596
2023-04-04T10:20:20.747Z,4.3839
2023-04-04T10:21:21.613Z,4.3575
2023-04-04T10:22:22.524Z,4.3538
2023-04-04T10:23:23.376Z,4.4006
2023-04-04T10:24:24.194Z,4.4467
2023-04-04T10:25:25.054Z,4.5433
2023-04-04T10:26:25.977Z,4.4677
2023-04-04T10:27:26.796Z,4.5891
2023-04-04T10:28:27.634Z,4.5224
2023-04-04T10:29:28.510Z,4.4826
2023-04-04T10:30:29.349Z,4.4108
2023-04-04T10:31:30.339Z,4.4806
2023-04-04T10:32:31.241Z,4.5832
2023-04-04T10:33:32.087Z,4.4963
2023-04-04T10:34:32.936Z,4.3868
2023-04-04T10:35:33.800Z,4.5467
2023-04-04T10:36:34.658Z,4.5567
2023-04-04T10:37:35.460Z,4.6007
2023-04-04T10:38:36.290Z,4.7356
2023-04-04T10:39:37.123Z,4.7155
2023-04-04T10:40:38.183Z,4.5547
2023-04-04T10:41:40.095Z,4.4999
2023-04-04T10:42:40.922Z,4.5627
2023-04-04T10:43:41.764Z,4.6458
2023-04-04T10:44:42.596Z,4.6893
2023-04-04T10:45:43.571Z,4.5895
2023-04-04T10:46:44.516Z,4.5373
2023-04-04T10:47:45.407Z,4.5540
2023-04-04T10:48:46.235Z,4.6641
2023-04-04T10:49:47.164Z,4.6726
2023-04-04T10:50:47.984Z,4.6173
2023-04-04T10:51:55.753Z,4.6535
2023-04-04T10:52:49.193Z,4.6746
2023-04-04T10:53:50.045Z,4.6012
2023-04-04T10:54:51.132Z,4.5918
2023-04-04T10:55:51.997Z,4.7133
2023-04-04T10:56:52.839Z,4.7513
2023-04-04T10:57:53.694Z,4.8243
2023-04-04T10:58:55.481Z,4.8886
2023-04-04T10:59:56.813Z,4.8835
2023-04-04T11:00:57.740Z,4.8688
2023-04-04T11:01:58.848Z,4.8009
2023-04-04T11:02:59.771Z,4.8113
2023-04-04T11:04:01.295Z,4.8992
2023-04-04T11:05:02.166Z,4.8564
2023-04-04T11:06:03.004Z,4.9700
2023-04-04T11:07:03.864Z,5.0795
2023-04-04T11:08:08.725Z,5.2128
2023-04-04T11:09:04.759Z,5.2609
2023-04-04T11:10:05.608Z,5.2430
2023-04-04T11:11:16.093Z,5.2733
2023-04-04T11:12:07.892Z,5.2824
2023-04-04T11:13:12.373Z,5.1463
2023-04-04T11:14:10.593Z,5.3381
2023-04-04T11:15:09.469Z,5.1912
2023-04-04T11:16:10.364Z,5.3565
2023-04-04T11:17:11.271Z,5.4240
2023-04-04T11:18:26.547Z,5.3523
2023-04-04T11:19:13.558Z,5.4137
2023-04-04T11:20:14.438Z,5.4290
2023-04-04T11:21:15.281Z,5.5003
2023-04-04T11:22:16.114Z,5.5192
2023-04-04T11:23:16.918Z,5.5588
2023-04-04T11:24:17.721Z,5.6128
2023-04-04T11:25:18.505Z,5.7782
2023-04-04T11:26:19.389Z,5.6077
2023-04-04T11:27:20.324Z,5.5301
2023-04-04T11:28:21.109Z,5.5025
2023-04-04T11:29:22.039Z,5.5291
2023-04-04T11:30:22.851Z,5.5312
2023-04-04T11:31:23.675Z,5.5511
2023-04-04T11:32:24.453Z,5.5623
2023-04-04T11:33:25.346Z,5.5546
2023-04-04T11:34:26.262Z,5.5478
2023-04-04T11:35:27.157Z,5.4873
2023-04-04T11:36:28.070Z,5.6507
2023-04-04T11:37:28.914Z,5.6038
2023-04-04T11:38:29.766Z,5.6447
2023-04-04T11:39:30.599Z,5.6857
2023-04-04T11:40:31.494Z,5.7774
2023-04-04T11:41:32.288Z,5.7995
2023-04-04T11:42:33.155Z,5.8929
2023-04-04T11:43:33.960Z,6.0549
2023-04-04T11:44:34.799Z,6.0010
2023-04-04T11:45:35.614Z,6.0539
2023-04-04T11:46:36.488Z,5.9938
2023-04-04T11:47:37.372Z,6.0491
2023-04-04T11:48:38.187Z,6.1968
2023-04-04T11:49:39.019Z,6.1065
2023-04-04T11:50:39.829Z,6.2764
2023-04-04T11:51:40.647Z,6.3814
2023-04-04T11:52:41.441Z,7.4012
2023-04-04T11:53:42.257Z,9.2772
2023-04-04T11:54:43.023Z,9.1112
2023-04-04T11:55:43.868Z,9.8394
2023-04-04T11:56:44.588Z,9.7888
2023-04-04T11:57:45.396Z,9.9285
2023-04-04T11:58:46.091Z,10.6821
2023-04-04T11:59:46.975Z,10.7038
2023-04-04T12:00:47.819Z,11.3735
2023-04-04T12:01:48.483Z,11.2209
2023-04-04T12:02:49.261Z,10.8736
2023-04-04T12:03:50.090Z,10.5691
2023-04-04T12:04:50.769Z,11.0323
2023-04-04T12:05:51.501Z,9.8014
2023-04-04T12:06:52.160Z,10.8242
2023-04-04T12:07:52.843Z,11.0046
2023-04-04T12:08:53.497Z,10.9989
2023-04-04T12:09:56.198Z,11.3666
2023-04-04T12:10:55.806Z,11.2064
2023-04-04T12:11:56.461Z,11.5793
2023-04-04T12:12:57.076Z,11.5103
2023-04-04T12:13:57.670Z,11.7232
2023-04-04T12:15:10.350Z,11.3194
2023-04-04T12:15:59.573Z,12.3669
2023-04-04T12:17:00.160Z,11.6649
2023-04-04T12:18:00.776Z,10.0092
2023-04-04T12:19:01.335Z,11.6412
2023-04-04T12:20:01.916Z,11.3258
2023-04-04T12:21:02.577Z,10.5621
2023-04-04T12:22:05.214Z,11.3553
2023-04-04T12:23:03.677Z,11.3533
2023-04-04T12:24:04.269Z,12.0570
2023-04-04T12:25:04.886Z,11.4106
2023-04-04T12:26:05.418Z,11.3967
2023-04-04T12:27:06.000Z,12.1813
2023-04-04T12:28:06.558Z,13.5152
2023-04-04T12:29:07.089Z,12.3856
2023-04-04T12:30:07.593Z,12.4128
2023-04-04T12:31:08.203Z,11.9141
2023-04-04T12:32:08.719Z,13.2822
2023-04-04T12:33:09.338Z,12.7727